CheckWX is a tool to help pilots better visualize weather data.  It is not intended as a substitute for an official pre-flight weather briefing.

08:44:24 UTC

KORF METAR
Norfolk International Airport
Norfolk, Virginia, USA
Current

53 mins ago

KORF 220751Z AUTO 00000KT 10SM FEW033 BKN075 OVC095 08/06 A3024 RMK AO2 SLP239 T00830061
Observed
Feb-22 @ 07:51 UTC
Visibility
10 SM
Flight Rules
VFR
Cloud Levels
  • Few at 3,300' AGL
  • Broken at 7,500' AGL
  • Overcast at 9,500' AGL
Temperature
C / 46°F
Dewpoint
C / 43°F
Humidity
87%
Altimeter
30.24" Hg
Pressure
1023.9 hPa
Previous

2 hours ago

KORF 220651Z 05003KT 10SM OVC100 08/07 A3020 RMK AO2 SLP225 T00780067
Observed
Feb-22 @ 06:51 UTC
Wind
  • 050° at 3 KTS
Visibility
10 SM
Flight Rules
VFR
Cloud Levels
  • Overcast at 10,000' AGL
Temperature
C / 46°F
Dewpoint
C / 45°F
Humidity
93%
Altimeter
30.2" Hg
Pressure
1022.5 hPa
Previous

3 hours ago

KORF 220551Z 00000KT 10SM OVC110 08/07 A3021 RMK AO2 SLP230 T00780067 10089 20067 53012
Observed
Feb-22 @ 05:51 UTC
Visibility
10 SM
Flight Rules
VFR
Cloud Levels
  • Overcast at 11,000' AGL
Temperature
C / 46°F
Dewpoint
C / 45°F
Humidity
93%
Altimeter
30.21" Hg
Pressure
1023 hPa